MV Boron Navigator — H9DA — position and weather

sailwx.info

Track history (hours):
 
Tides and Currents Weather Stations Pressure Air Temp Water Temp Dewpoint Dewpoint Depression Visibility Wind Speed Wind Dir Waves Ship Positions

MV Boron Navigator

Last reported at 2017-Nov-20 00:26 UTC. Time now 2017-Nov-23 07:43 UTC.
Position N 31°19' E 121°44'.

Length 189.8 m; beam 32.3 m.

Type: Cargo ship. MMSI: 357109000.

Date/timePositionNaut miles runAvg speedWind from/ knotsBaromVisibWave heightAir tempDewpointWater temp
2017-Nov-20 00:26N 31°19' E 121°44'4 9.6
2017-Nov-20 00:01N 31°17' E 121°48'5 9.7
2017-Nov-19 23:31N 31°16' E 121°54'510.5
2017-Nov-19 23:00N 31°15' E 121°60'510.5
2017-Nov-19 22:30N 31°14' E 122°06'510.2
2017-Nov-19 22:00N 31°11' E 122°11'4 7.8
2017-Nov-19 21:30N 31°09' E 122°14'5 9.9
2017-Nov-19 20:57N 31°06' E 122°20'  
2017-Nov-15 14:11N 34°45' E 139°33'316.4
2017-Nov-15 14:00N 34°48' E 139°35'816.3
2017-Nov-15 13:30N 34°55' E 139°39'817.0
2017-Nov-15 13:00N 35°03' E 139°42'815.3
2017-Nov-15 12:30N 35°11' E 139°45'510.7
2017-Nov-15 12:00N 35°16' E 139°46'612.9
2017-Nov-15 11:30N 35°22' E 139°42'713.4
2017-Nov-15 11:00N 35°27' E 139°47'612.7
2017-Nov-15 10:30N 35°32' E 139°51'5 9.6
2017-Nov-15 10:00N 35°37' E 139°48'0 0.1
2017-Nov-15 05:34N 35°37' E 139°47'0 0.0
2017-Nov-15 05:16N 35°37' E 139°47'0 0.0
2017-Nov-14 04:22N 35°37' E 139°47'0 0.0
2017-Nov-14 03:52N 35°37' E 139°47'  
2017-Nov-10 00:34N 35°37' E 139°47'  
Track history (hours):
 
Tides and Currents Weather Stations Pressure Air Temp Water Temp Dewpoint Dewpoint Depression Visibility Wind Speed Wind Dir Waves Ship Positions

MV Boron Navigator

Last reported at 2017-Nov-20 00:26 UTC. Time now 2017-Nov-23 07:43 UTC.
Position N 31°19' E 121°44'.

Length 189.8 m; beam 32.3 m.

Type: Cargo ship. MMSI: 357109000.

Date/timePositionNaut miles runAvg speedWind from/ knotsBaromVisibWave heightAir tempDewpointWater temp
2017-Nov-20 00:26N 31°19' E 121°44'4 9.6
2017-Nov-20 00:01N 31°17' E 121°48'5 9.7
2017-Nov-19 23:31N 31°16' E 121°54'510.5
2017-Nov-19 23:00N 31°15' E 121°60'510.5
2017-Nov-19 22:30N 31°14' E 122°06'510.2
2017-Nov-19 22:00N 31°11' E 122°11'4 7.8
2017-Nov-19 21:30N 31°09' E 122°14'5 9.9
2017-Nov-19 20:57N 31°06' E 122°20'  
2017-Nov-15 14:11N 34°45' E 139°33'316.4
2017-Nov-15 14:00N 34°48' E 139°35'816.3
2017-Nov-15 13:30N 34°55' E 139°39'817.0
2017-Nov-15 13:00N 35°03' E 139°42'815.3
2017-Nov-15 12:30N 35°11' E 139°45'510.7
2017-Nov-15 12:00N 35°16' E 139°46'612.9
2017-Nov-15 11:30N 35°22' E 139°42'713.4
2017-Nov-15 11:00N 35°27' E 139°47'612.7
2017-Nov-15 10:30N 35°32' E 139°51'5 9.6
2017-Nov-15 10:00N 35°37' E 139°48'0 0.1
2017-Nov-15 05:34N 35°37' E 139°47'0 0.0
2017-Nov-15 05:16N 35°37' E 139°47'0 0.0
2017-Nov-14 04:22N 35°37' E 139°47'0 0.0
2017-Nov-14 03:52N 35°37' E 139°47'  
2017-Nov-10 00:34N 35°37' E 139°47'  

Dump ship's entire track history